createdAt,value
2022-12-28T00:00:01.274Z,1038.9110
2022-12-28T00:00:12.516Z,1034.8840
2022-12-28T00:00:23.701Z,1034.8840
2022-12-28T00:00:34.810Z,1031.6851
2022-12-28T00:00:45.989Z,1036.4910
2022-12-28T00:00:57.031Z,1038.1030
2022-12-28T00:01:08.134Z,1034.0820
2022-12-28T00:01:19.175Z,1039.7200
2022-12-28T00:01:30.335Z,1038.1030
2022-12-28T00:01:41.483Z,1034.8840
2022-12-28T00:01:52.600Z,1038.1030
2022-12-28T00:02:03.705Z,1036.4910
2022-12-28T00:02:14.787Z,1035.6870
2022-12-28T00:02:25.888Z,1036.4910
2022-12-28T00:02:37.020Z,1037.2960
2022-12-28T00:02:48.246Z,1036.4910
2022-12-28T00:02:59.321Z,1034.0820
2022-12-28T00:03:10.442Z,1027.7140
2022-12-28T00:03:21.705Z,1031.6851
2022-12-28T00:03:32.752Z,1031.6851
2022-12-28T00:03:43.819Z,1034.8840
2022-12-28T00:03:54.895Z,1039.7200
2022-12-28T00:04:05.969Z,1031.6851
2022-12-28T00:04:17.027Z,1033.2820
2022-12-28T00:04:28.073Z,1036.4910
2022-12-28T00:04:39.156Z,1038.1030
2022-12-28T00:04:50.238Z,1042.1550
2022-12-28T00:05:01.300Z,1042.1550
2022-12-28T00:05:12.360Z,1034.8840
2022-12-28T00:05:23.413Z,1037.2960
2022-12-28T00:05:34.473Z,1038.9110
2022-12-28T00:05:45.540Z,1038.9110
2022-12-28T00:05:56.615Z,1034.8840
2022-12-28T00:06:07.663Z,1034.8840
2022-12-28T00:06:18.765Z,1036.4910
2022-12-28T00:06:29.821Z,1038.1030
2022-12-28T00:06:40.898Z,1039.7200
2022-12-28T00:06:51.941Z,1039.7200
2022-12-28T00:07:03.017Z,1030.0930
2022-12-28T00:07:14.109Z,1038.9110
2022-12-28T00:07:25.173Z,1042.9690
2022-12-28T00:07:36.236Z,1034.8840
2022-12-28T00:07:47.278Z,1040.5300
2022-12-28T00:07:58.350Z,1038.1030
2022-12-28T00:08:09.417Z,1036.4910
2022-12-28T00:08:20.472Z,1039.7200
2022-12-28T00:08:31.591Z,1042.9690
2022-12-28T00:08:42.885Z,1041.3420
2022-12-28T00:08:53.978Z,1038.9110
2022-12-28T00:09:05.033Z,1042.9690
2022-12-28T00:09:16.096Z,1039.7200
2022-12-28T00:09:27.171Z,1031.6851
2022-12-28T00:09:38.214Z,1039.7200
2022-12-28T00:09:49.287Z,1038.9110
2022-12-28T00:10:00.358Z,1041.3420
2022-12-28T00:10:11.422Z,1042.1550
2022-12-28T00:11:06.654Z,1025.3459
2022-12-28T00:11:07.621Z,1038.9110
2022-12-28T00:11:09.045Z,1026.9230
2022-12-28T00:11:20.426Z,1015.9820
2022-12-28T00:11:31.268Z,1012.8980
2022-12-28T00:11:42.521Z,1009.8340
2022-12-28T00:11:53.592Z,1013.6670
2022-12-28T00:12:04.664Z,1015.2090
2022-12-28T00:12:15.748Z,1025.3459
2022-12-28T00:12:26.810Z,1019.8620
2022-12-28T00:12:37.917Z,1026.1340
2022-12-28T00:12:48.944Z,1030.0930
2022-12-28T00:13:00.020Z,1029.2980
2022-12-28T00:13:11.074Z,1029.2980
2022-12-28T00:13:22.143Z,1023.7730
2022-12-28T00:13:33.241Z,1030.0930
2022-12-28T00:13:44.396Z,1031.6851
2022-12-28T00:13:55.442Z,1032.4830
2022-12-28T00:14:06.544Z,1034.8840
2022-12-28T00:14:17.642Z,1027.7140
2022-12-28T00:14:28.777Z,1038.1030
2022-12-28T00:14:39.835Z,1036.4910
2022-12-28T00:14:50.919Z,1035.6870
2022-12-28T00:15:01.992Z,1041.3420
2022-12-28T00:15:13.038Z,1041.3420
2022-12-28T00:15:24.104Z,1034.0820
2022-12-28T00:15:35.162Z,1030.0930
2022-12-28T00:15:46.232Z,1044.6010
2022-12-28T00:15:57.362Z,1036.4910
2022-12-28T00:16:08.427Z,1044.6010
2022-12-28T00:16:19.520Z,1044.6010
2022-12-28T00:16:30.696Z,1046.2380
2022-12-28T00:16:41.852Z,1042.9690
2022-12-28T00:16:52.951Z,1042.9690
2022-12-28T00:17:04.056Z,1047.0590
2022-12-28T00:17:15.090Z,1042.1550
2022-12-28T00:17:26.149Z,1042.9690
2022-12-28T00:17:37.194Z,1051.1810
2022-12-28T00:17:48.269Z,1051.1810
2022-12-28T00:17:59.337Z,1051.1810
2022-12-28T00:18:10.409Z,1055.3361
2022-12-28T00:18:21.852Z,1052.8390
2022-12-28T00:18:32.929Z,1055.3361
2022-12-28T00:18:44.062Z,1054.5020
2022-12-28T00:18:55.133Z,1059.5240
2022-12-28T00:19:06.182Z,1061.2080
2022-12-28T00:19:17.237Z,1056.1710
2022-12-28T00:19:28.307Z,1057.8450
2022-12-28T00:19:39.380Z,1057.8450
2022-12-28T00:19:50.462Z,1068.8550
2022-12-28T00:20:01.544Z,1056.1710
2022-12-28T00:20:12.616Z,1056.1710
2022-12-28T00:20:23.702Z,1065.4430
2022-12-28T00:20:34.768Z,1063.7450
2022-12-28T00:20:45.836Z,1061.2080
2022-12-28T00:20:56.867Z,1062.0530
2022-12-28T00:21:07.924Z,1067.1460
2022-12-28T00:21:18.960Z,1064.5930
2022-12-28T00:21:30.067Z,1064.5930
2022-12-28T00:21:41.133Z,1064.5930
2022-12-28T00:21:52.210Z,1057.0070
2022-12-28T00:22:03.267Z,1069.7120
2022-12-28T00:22:14.320Z,1071.4290
2022-12-28T00:22:25.407Z,1069.7120
2022-12-28T00:22:36.457Z,1069.7120
2022-12-28T00:22:47.532Z,1068.8550
2022-12-28T00:22:58.611Z,1074.0140
2022-12-28T00:23:09.710Z,1073.1510
2022-12-28T00:23:20.797Z,1076.6130
2022-12-28T00:23:31.892Z,1074.0140
2022-12-28T00:23:42.918Z,1076.6130
2022-12-28T00:23:54.027Z,1089.7960
2022-12-28T00:24:09.072Z,1068.0000
2022-12-28T00:24:20.130Z,1076.6130
2022-12-28T00:24:31.190Z,1069.7120
2022-12-28T00:24:42.284Z,1076.6130
2022-12-28T00:24:53.384Z,1073.1510
2022-12-28T00:25:04.583Z,1078.3521
2022-12-28T00:25:15.649Z,1078.3521
2022-12-28T00:25:26.721Z,1081.8480
2022-12-28T00:25:37.804Z,1080.0970
2022-12-28T00:25:48.872Z,1083.6040
2022-12-28T00:25:59.938Z,1084.4840
2022-12-28T00:26:10.992Z,1081.8480
2022-12-28T00:26:22.059Z,1087.1340
2022-12-28T00:26:33.124Z,1093.3660
2022-12-28T00:26:44.200Z,1086.2490
2022-12-28T00:26:55.285Z,1091.5780
2022-12-28T00:27:06.379Z,1089.7960
2022-12-28T00:27:17.444Z,1093.3660
2022-12-28T00:27:28.471Z,1084.4840
2022-12-28T00:27:39.519Z,1093.3660
2022-12-28T00:27:50.606Z,1096.0590
2022-12-28T00:28:01.667Z,1094.2620
2022-12-28T00:28:12.738Z,1097.8621
2022-12-28T00:28:23.809Z,1100.5770
2022-12-28T00:28:34.872Z,1099.6710
2022-12-28T00:28:45.946Z,1092.4709
2022-12-28T00:29:03.713Z,1096.9600
2022-12-28T00:29:13.992Z,1085.3660
2022-12-28T00:29:25.050Z,1089.7960
2022-12-28T00:29:36.109Z,1099.6710
2022-12-28T00:29:47.147Z,1099.6710
2022-12-28T00:29:58.207Z,1094.2620
2022-12-28T00:30:09.283Z,1089.7960
2022-12-28T00:30:20.337Z,1103.3060
2022-12-28T00:30:31.408Z,1097.8621
2022-12-28T00:30:42.468Z,1104.2180
2022-12-28T00:30:53.507Z,1099.6710
2022-12-28T00:31:04.601Z,1102.3950
2022-12-28T00:31:15.706Z,1096.9600
2022-12-28T00:31:26.793Z,1102.3950
2022-12-28T00:31:37.947Z,1106.9650
2022-12-28T00:31:49.060Z,1103.3060
2022-12-28T00:32:00.255Z,1100.5770
2022-12-28T00:32:11.354Z,1106.9650
2022-12-28T00:32:22.421Z,1110.6490
2022-12-28T00:32:33.493Z,1107.8840
2022-12-28T00:32:44.547Z,1106.0480
2022-12-28T00:32:55.627Z,1102.3950
2022-12-28T00:33:06.698Z,1107.8840
2022-12-28T00:33:17.761Z,1114.3571
2022-12-28T00:33:28.841Z,1110.6490
2022-12-28T00:33:39.907Z,1115.2880
2022-12-28T00:33:50.968Z,1112.5000
2022-12-28T00:34:02.055Z,1109.7260
2022-12-28T00:34:13.133Z,1116.2209
2022-12-28T00:34:24.201Z,1116.2209
2022-12-28T00:34:35.280Z,1118.0900
2022-12-28T00:34:46.362Z,1114.3571
2022-12-28T00:34:57.437Z,1115.2880
2022-12-28T00:35:08.509Z,1123.7371
2022-12-28T00:35:19.588Z,1112.5000
2022-12-28T00:35:30.662Z,1129.4420
2022-12-28T00:35:41.733Z,1123.7371
2022-12-28T00:35:52.801Z,1122.7920
2022-12-28T00:36:03.858Z,1127.5341
2022-12-28T00:36:14.911Z,1128.4871
2022-12-28T00:37:08.386Z,1119.9659
2022-12-28T00:37:10.413Z,1109.7260
2022-12-28T00:37:10.747Z,1114.3571
2022-12-28T00:37:16.886Z,1101.4850
2022-12-28T00:37:27.998Z,1092.4709
2022-12-28T00:37:39.067Z,1099.6710
2022-12-28T00:37:50.162Z,1116.2209
2022-12-28T00:38:01.217Z,1112.5000
2022-12-28T00:38:12.279Z,1121.8490
2022-12-28T00:38:23.339Z,1114.3571
2022-12-28T00:38:34.408Z,1116.2209
2022-12-28T00:38:45.471Z,1125.6320
2022-12-28T00:38:56.541Z,1127.5341
2022-12-28T00:39:07.636Z,1125.6320
2022-12-28T00:39:18.708Z,1123.7371
2022-12-28T00:39:29.802Z,1129.4420
2022-12-28T00:39:40.861Z,1129.4420
2022-12-28T00:39:51.915Z,1124.6840
2022-12-28T00:40:02.978Z,1131.3560
2022-12-28T00:40:17.607Z,1123.7371
2022-12-28T00:40:31.013Z,1119.9659
2022-12-28T00:40:42.111Z,1119.9659
2022-12-28T00:40:53.158Z,1129.4420
2022-12-28T00:41:04.236Z,1125.6320
2022-12-28T00:41:15.291Z,1123.7371
2022-12-28T00:41:26.367Z,1130.3979
2022-12-28T00:41:37.452Z,1131.3560
2022-12-28T00:41:48.530Z,1131.3560
2022-12-28T00:41:59.598Z,1137.1379
2022-12-28T00:42:10.637Z,1135.2040
2022-12-28T00:42:21.721Z,1141.0260
2022-12-28T00:42:32.806Z,1139.0790
2022-12-28T00:42:43.876Z,1139.0790
2022-12-28T00:42:54.952Z,1139.0790
2022-12-28T00:43:06.037Z,1140.0510
2022-12-28T00:43:17.110Z,1141.0260
2022-12-28T00:43:28.181Z,1142.9790
2022-12-28T00:43:39.239Z,1144.9399
2022-12-28T00:43:50.308Z,1141.0260
2022-12-28T00:44:01.373Z,1148.8810
2022-12-28T00:44:12.470Z,1133.2770
2022-12-28T00:44:23.538Z,1148.8810
2022-12-28T00:44:34.608Z,1150.8621
2022-12-28T00:44:45.688Z,1149.8710
2022-12-28T00:44:56.719Z,1142.0020
2022-12-28T00:45:07.784Z,1146.9070
2022-12-28T00:45:18.842Z,1144.9399
2022-12-28T00:45:30.018Z,1153.8459
2022-12-28T00:45:41.143Z,1152.8500
2022-12-28T00:45:52.275Z,1151.8550
2022-12-28T00:46:03.444Z,1154.8440
2022-12-28T00:46:14.581Z,1144.9399
2022-12-28T00:46:25.640Z,1154.8440
2022-12-28T00:46:36.713Z,1152.8500
2022-12-28T00:46:47.808Z,1160.8700
2022-12-28T00:46:58.861Z,1152.8500
2022-12-28T00:47:09.938Z,1160.8700
2022-12-28T00:47:21.028Z,1148.8810
2022-12-28T00:47:32.105Z,1160.8700
2022-12-28T00:47:43.169Z,1155.8440
2022-12-28T00:47:54.234Z,1163.9060
2022-12-28T00:48:05.318Z,1162.8920
2022-12-28T00:48:16.390Z,1162.8920
2022-12-28T00:48:27.448Z,1154.8440
2022-12-28T00:48:38.529Z,1162.8920
2022-12-28T00:48:49.607Z,1166.9580
2022-12-28T00:49:00.662Z,1165.9390
2022-12-28T00:49:11.736Z,1154.8440
2022-12-28T00:49:22.800Z,1171.0530
2022-12-28T00:49:33.892Z,1153.8459
2022-12-28T00:49:44.952Z,1171.0530
2022-12-28T00:49:56.020Z,1173.1110
2022-12-28T00:50:07.072Z,1169.0020
2022-12-28T00:50:18.107Z,1163.9060
2022-12-28T00:50:29.204Z,1164.9210
2022-12-28T00:50:40.324Z,1169.0020
2022-12-28T00:50:51.429Z,1176.2111
2022-12-28T00:51:02.478Z,1162.8920
2022-12-28T00:51:13.548Z,1169.0020
2022-12-28T00:51:24.615Z,1175.1760
2022-12-28T00:51:35.671Z,1175.1760
2022-12-28T00:51:46.751Z,1181.4160
2022-12-28T00:51:57.826Z,1181.4160
2022-12-28T00:52:08.902Z,1177.2490
2022-12-28T00:52:19.976Z,1178.2880
2022-12-28T00:52:31.050Z,1182.4620
2022-12-28T00:52:42.102Z,1180.3710
2022-12-28T00:52:53.189Z,1173.1110
2022-12-28T00:53:04.246Z,1175.1760
2022-12-28T00:53:15.327Z,1179.3290
2022-12-28T00:53:26.381Z,1185.6130
2022-12-28T00:53:37.437Z,1181.4160
2022-12-28T00:53:48.492Z,1179.3290
2022-12-28T00:53:59.571Z,1175.1760
2022-12-28T00:54:10.640Z,1185.6130
2022-12-28T00:54:21.704Z,1186.6670
2022-12-28T00:54:32.792Z,1183.5110
2022-12-28T00:54:43.864Z,1189.8400
2022-12-28T00:54:54.928Z,1184.5610
2022-12-28T00:55:06.036Z,1182.4620
2022-12-28T00:55:17.129Z,1179.3290
2022-12-28T00:55:28.232Z,1190.9010
2022-12-28T00:55:39.308Z,1191.9640
2022-12-28T00:55:50.369Z,1182.4620
2022-12-28T00:56:01.436Z,1179.3290
2022-12-28T00:56:12.467Z,1182.4620
2022-12-28T00:56:23.536Z,1195.1660
2022-12-28T00:56:34.630Z,1193.0291
2022-12-28T00:56:45.694Z,1189.8400
2022-12-28T00:56:56.966Z,1187.7220
2022-12-28T00:57:08.065Z,1194.0970
2022-12-28T00:57:19.167Z,1194.0970
2022-12-28T00:57:30.245Z,1185.6130
2022-12-28T00:57:41.302Z,1197.3090
2022-12-28T00:57:52.387Z,1191.9640
2022-12-28T00:58:03.455Z,1202.7030
2022-12-28T00:58:14.529Z,1196.2371
2022-12-28T00:58:25.587Z,1198.3840
2022-12-28T00:58:36.661Z,1205.9620
2022-12-28T00:58:47.762Z,1200.5400
2022-12-28T00:58:58.823Z,1197.3090
2022-12-28T00:59:09.884Z,1209.2390
2022-12-28T00:59:20.947Z,1202.7030
2022-12-28T00:59:31.988Z,1194.0970
2022-12-28T00:59:43.091Z,1211.4340
2022-12-28T00:59:54.194Z,1196.2371
2022-12-28T01:00:05.249Z,1201.6200
2022-12-28T01:00:16.308Z,1204.8740
2022-12-28T01:00:27.376Z,1200.5400
2022-12-28T01:00:38.489Z,1207.0520
2022-12-28T01:00:49.647Z,1211.4340
2022-12-28T01:01:00.859Z,1205.9620
2022-12-28T01:01:12.238Z,1208.1450
2022-12-28T01:01:23.494Z,1198.3840
2022-12-28T01:01:34.755Z,1210.3350
2022-12-28T01:01:46.196Z,1198.3840
2022-12-28T01:01:57.383Z,1198.3840
2022-12-28T01:02:08.635Z,1197.3090
2022-12-28T01:02:19.802Z,1208.1450
2022-12-28T01:02:30.910Z,1210.3350
2022-12-28T01:02:42.053Z,1207.0520
2022-12-28T01:02:53.132Z,1211.4340
2022-12-28T01:03:04.361Z,1204.8740
2022-12-28T01:03:15.506Z,1210.3350
2022-12-28T01:03:26.556Z,1211.4340
2022-12-28T01:03:37.628Z,1205.9620
2022-12-28T01:03:48.690Z,1218.0660
2022-12-28T01:03:59.747Z,1210.3350
2022-12-28T01:04:10.819Z,1216.9550
2022-12-28T01:04:22.085Z,1209.2390
2022-12-28T01:04:33.166Z,1219.1780
2022-12-28T01:04:44.278Z,1211.4340
2022-12-28T01:04:55.338Z,1214.7410
2022-12-28T01:05:06.401Z,1209.2390
2022-12-28T01:05:17.473Z,1202.7030
2022-12-28T01:05:28.517Z,1220.2930
2022-12-28T01:05:39.589Z,1207.0520
2022-12-28T01:05:50.648Z,1211.4340
2022-12-28T01:06:01.687Z,1213.6360
2022-12-28T01:06:12.765Z,1211.4340
2022-12-28T01:06:23.831Z,1218.0660
2022-12-28T01:06:34.935Z,1219.1780
2022-12-28T01:06:45.987Z,1216.9550
2022-12-28T01:06:57.037Z,1213.6360
2022-12-28T01:07:08.107Z,1229.2820
2022-12-28T01:07:19.167Z,1220.2930
2022-12-28T01:07:30.235Z,1225.8950
2022-12-28T01:07:41.308Z,1225.8950
2022-12-28T01:07:52.372Z,1215.8470
2022-12-28T01:08:03.435Z,1234.9680
2022-12-28T01:08:14.517Z,1225.8950
2022-12-28T01:08:25.589Z,1220.2930
2022-12-28T01:08:36.650Z,1218.0660
2022-12-28T01:08:47.763Z,1231.5500
2022-12-28T01:08:58.813Z,1221.4091
2022-12-28T01:09:09.881Z,1229.2820
2022-12-28T01:09:20.962Z,1229.2820
2022-12-28T01:09:32.004Z,1234.9680
2022-12-28T01:09:43.062Z,1231.5500
2022-12-28T01:09:54.181Z,1240.7061
2022-12-28T01:10:05.247Z,1224.7710
2022-12-28T01:10:16.313Z,1240.7061
2022-12-28T01:10:27.383Z,1236.1110
2022-12-28T01:10:38.441Z,1238.4041
2022-12-28T01:10:49.520Z,1229.2820
2022-12-28T01:11:00.588Z,1230.4150
2022-12-28T01:11:11.650Z,1232.6870
2022-12-28T01:11:22.709Z,1243.0170
2022-12-28T01:11:33.794Z,1243.0170
2022-12-28T01:11:44.859Z,1239.5540
2022-12-28T01:11:55.916Z,1243.0170
2022-12-28T01:12:06.977Z,1233.8260
2022-12-28T01:12:18.039Z,1233.8260
2022-12-28T01:12:34.621Z,1239.5540
2022-12-28T01:12:46.064Z,1233.8260
2022-12-28T01:12:57.131Z,1224.7710
2022-12-28T01:13:08.241Z,1238.4041
2022-12-28T01:13:19.326Z,1239.5540
2022-12-28T01:13:30.398Z,1231.5500
2022-12-28T01:13:41.445Z,1238.4041
2022-12-28T01:13:52.541Z,1239.5540
2022-12-28T01:14:03.597Z,1229.2820
2022-12-28T01:14:14.662Z,1233.8260
2022-12-28T01:14:25.735Z,1231.5500
2022-12-28T01:14:36.791Z,1241.8600
2022-12-28T01:14:47.868Z,1250.0000
2022-12-28T01:14:59.094Z,1244.1750
2022-12-28T01:15:10.148Z,1248.8311
2022-12-28T01:15:21.228Z,1234.9680
2022-12-28T01:15:32.301Z,1250.0000
2022-12-28T01:15:43.374Z,1243.0170
2022-12-28T01:15:54.449Z,1236.1110
2022-12-28T01:16:05.552Z,1253.5210
2022-12-28T01:16:16.730Z,1244.1750
2022-12-28T01:16:27.932Z,1250.0000
2022-12-28T01:16:39.110Z,1245.3361
2022-12-28T01:16:50.290Z,1238.4041
2022-12-28T01:17:03.461Z,1244.1750
2022-12-28T01:17:15.311Z,1245.3361
2022-12-28T01:17:26.390Z,1252.3450
2022-12-28T01:17:37.477Z,1233.8260
2022-12-28T01:17:48.528Z,1251.1720
2022-12-28T01:17:59.606Z,1245.3361
2022-12-28T01:18:10.668Z,1250.0000
2022-12-28T01:18:23.800Z,1240.7061
2022-12-28T01:18:34.862Z,1244.1750
2022-12-28T01:18:45.952Z,1251.1720
2022-12-28T01:18:57.052Z,1241.8600
2022-12-28T01:19:08.175Z,1255.8800
2022-12-28T01:19:19.304Z,1243.0170
2022-12-28T01:19:30.383Z,1255.8800
2022-12-28T01:19:41.455Z,1257.0620
2022-12-28T01:19:54.179Z,1252.3450
2022-12-28T01:20:05.607Z,1245.3361
2022-12-28T01:20:16.679Z,1245.3361
2022-12-28T01:20:27.757Z,1247.6639
2022-12-28T01:20:38.897Z,1254.6990
2022-12-28T01:20:49.951Z,1243.0170
2022-12-28T01:21:01.034Z,1254.6990
2022-12-28T01:21:12.075Z,1245.3361
2022-12-28T01:21:23.157Z,1252.3450
2022-12-28T01:21:34.218Z,1261.8149
2022-12-28T01:21:45.277Z,1261.8149
2022-12-28T01:21:56.317Z,1259.4340
2022-12-28T01:22:07.376Z,1254.6990
2022-12-28T01:22:18.443Z,1259.4340
2022-12-28T01:22:29.507Z,1260.6230
2022-12-28T01:22:40.577Z,1261.8149
2022-12-28T01:22:51.661Z,1252.3450
2022-12-28T01:23:02.762Z,1252.3450
2022-12-28T01:23:13.878Z,1263.0090
2022-12-28T01:23:24.982Z,1255.8800
2022-12-28T01:23:36.027Z,1266.6030
2022-12-28T01:23:47.109Z,1267.8060
2022-12-28T01:23:58.144Z,1264.2050
2022-12-28T01:24:09.201Z,1265.4030
2022-12-28T01:24:20.280Z,1270.2190
2022-12-28T01:24:31.343Z,1266.6030
2022-12-28T01:24:42.401Z,1265.4030
2022-12-28T01:24:53.479Z,1267.8060
2022-12-28T01:25:04.829Z,1267.8060
2022-12-28T01:25:15.977Z,1271.4290
2022-12-28T01:25:27.029Z,1263.0090
2022-12-28T01:25:38.115Z,1270.2190
2022-12-28T01:25:49.199Z,1273.8550
2022-12-28T01:26:00.251Z,1276.2910
2022-12-28T01:26:11.331Z,1273.8550
2022-12-28T01:26:22.407Z,1278.7360
2022-12-28T01:26:33.482Z,1276.2910
2022-12-28T01:26:44.536Z,1276.2910
2022-12-28T01:26:55.619Z,1279.9620
2022-12-28T01:27:06.687Z,1267.8060
2022-12-28T01:27:17.727Z,1273.8550
2022-12-28T01:27:28.824Z,1284.8890
2022-12-28T01:27:39.856Z,1269.0110
2022-12-28T01:27:50.922Z,1272.6410
2022-12-28T01:28:01.988Z,1269.0110
2022-12-28T01:28:13.058Z,1271.4290
2022-12-28T01:28:24.139Z,1283.6541
2022-12-28T01:28:35.242Z,1281.1899
2022-12-28T01:28:46.327Z,1271.4290
2022-12-28T01:28:57.374Z,1269.0110
2022-12-28T01:29:08.436Z,1284.8890
2022-12-28T01:29:19.492Z,1276.2910
2022-12-28T01:29:30.574Z,1276.2910
2022-12-28T01:29:41.642Z,1272.6410
2022-12-28T01:29:52.707Z,1284.8890
2022-12-28T01:30:03.831Z,1265.4030
2022-12-28T01:30:14.870Z,1283.6541
2022-12-28T01:30:25.963Z,1273.8550
2022-12-28T01:30:38.864Z,1284.8890
2022-12-28T01:30:50.326Z,1266.6030
2022-12-28T01:31:01.420Z,1276.2910
2022-12-28T01:31:12.506Z,1283.6541
2022-12-28T01:31:23.626Z,1273.8550
2022-12-28T01:31:34.741Z,1282.4210
2022-12-28T01:31:45.851Z,1281.1899
2022-12-28T01:31:56.961Z,1286.1270
2022-12-28T01:32:08.138Z,1269.0110
2022-12-28T01:32:19.261Z,1281.1899
2022-12-28T01:32:30.304Z,1282.4210
2022-12-28T01:32:41.393Z,1276.2910
2022-12-28T01:32:52.458Z,1286.1270
2022-12-28T01:33:03.496Z,1270.2190
2022-12-28T01:33:14.560Z,1283.6541
2022-12-28T01:33:25.667Z,1288.6100
2022-12-28T01:33:36.717Z,1292.3521
2022-12-28T01:33:47.762Z,1275.0720
2022-12-28T01:33:58.828Z,1288.6100
2022-12-28T01:34:09.887Z,1294.8590
2022-12-28T01:34:20.947Z,1299.9030
2022-12-28T01:34:32.018Z,1281.1899
2022-12-28T01:34:43.097Z,1284.8890
2022-12-28T01:34:54.157Z,1291.1030
2022-12-28T01:35:05.201Z,1288.6100
2022-12-28T01:35:16.275Z,1294.8590
2022-12-28T01:35:27.362Z,1281.1899
2022-12-28T01:35:38.427Z,1283.6541
2022-12-28T01:35:49.518Z,1293.6050
2022-12-28T01:36:00.593Z,1286.1270
2022-12-28T01:36:11.667Z,1296.1169
2022-12-28T01:36:22.727Z,1298.6379
2022-12-28T01:36:33.820Z,1284.8890
2022-12-28T01:36:44.913Z,1296.1169
2022-12-28T01:36:55.982Z,1288.6100
2022-12-28T01:37:07.056Z,1294.8590
2022-12-28T01:37:18.106Z,1291.1030
2022-12-28T01:37:29.176Z,1301.1700
2022-12-28T01:37:40.231Z,1293.6050
2022-12-28T01:37:51.281Z,1293.6050
2022-12-28T01:38:02.370Z,1294.8590
2022-12-28T01:38:13.458Z,1296.1169
2022-12-28T01:38:24.520Z,1291.1030
2022-12-28T01:38:35.595Z,1303.7111
2022-12-28T01:38:46.650Z,1298.6379
2022-12-28T01:38:57.750Z,1297.3760
2022-12-28T01:39:08.809Z,1291.1030
2022-12-28T01:39:19.880Z,1293.6050
2022-12-28T01:39:30.958Z,1301.1700
2022-12-28T01:39:42.066Z,1291.1030
2022-12-28T01:39:53.145Z,1310.1080
2022-12-28T01:40:04.202Z,1306.2620
2022-12-28T01:40:15.286Z,1294.8590
2022-12-28T01:40:26.376Z,1308.8240
2022-12-28T01:40:37.501Z,1301.1700
2022-12-28T01:40:48.581Z,1293.6050
2022-12-28T01:40:59.648Z,1298.6379
2022-12-28T01:41:10.711Z,1298.6379
2022-12-28T01:41:21.789Z,1303.7111
2022-12-28T01:41:32.868Z,1298.6379
2022-12-28T01:41:43.939Z,1298.6379
2022-12-28T01:41:55.017Z,1296.1169
2022-12-28T01:42:06.136Z,1302.4390
2022-12-28T01:42:17.711Z,1304.9850
2022-12-28T01:42:28.813Z,1306.2620
2022-12-28T01:42:39.881Z,1303.7111
2022-12-28T01:42:50.986Z,1308.8240
2022-12-28T01:43:02.039Z,1303.7111
2022-12-28T01:43:13.124Z,1296.1169
2022-12-28T01:43:29.404Z,1307.5420
2022-12-28T01:43:41.155Z,1288.6100
2022-12-28T01:43:52.243Z,1301.1700
2022-12-28T01:44:03.361Z,1298.6379
2022-12-28T01:44:14.478Z,1302.4390
2022-12-28T01:44:25.561Z,1306.2620
2022-12-28T01:44:36.640Z,1297.3760
2022-12-28T01:44:47.727Z,1301.1700
2022-12-28T01:44:58.792Z,1304.9850
2022-12-28T01:45:09.866Z,1306.2620
2022-12-28T01:45:20.909Z,1297.3760
2022-12-28T01:45:32.055Z,1304.9850
2022-12-28T01:45:43.201Z,1311.3950
2022-12-28T01:45:54.432Z,1315.2710
2022-12-28T01:46:05.550Z,1310.1080
2022-12-28T01:46:16.672Z,1308.8240
2022-12-28T01:46:27.721Z,1308.8240
2022-12-28T01:46:38.797Z,1302.4390
2022-12-28T01:46:49.908Z,1312.6840
2022-12-28T01:47:00.953Z,1315.2710
2022-12-28T01:47:12.056Z,1316.5680
2022-12-28T01:47:23.109Z,1315.2710
2022-12-28T01:47:34.159Z,1304.9850
2022-12-28T01:47:45.225Z,1324.4050
2022-12-28T01:47:56.285Z,1313.9760
2022-12-28T01:48:07.343Z,1308.8240
2022-12-28T01:48:18.404Z,1306.2620
2022-12-28T01:48:29.471Z,1315.2710
2022-12-28T01:48:40.558Z,1324.4050
2022-12-28T01:48:51.600Z,1307.5420
2022-12-28T01:49:02.684Z,1308.8240
2022-12-28T01:49:13.742Z,1306.2620
2022-12-28T01:49:24.824Z,1319.1700
2022-12-28T01:49:35.876Z,1324.4050
2022-12-28T01:49:46.954Z,1311.3950
2022-12-28T01:49:58.021Z,1324.4050
2022-12-28T01:50:09.106Z,1316.5680
2022-12-28T01:50:20.206Z,1310.1080
2022-12-28T01:50:31.251Z,1311.3950
2022-12-28T01:50:42.325Z,1319.1700
2022-12-28T01:50:53.427Z,1329.6810
2022-12-28T01:51:04.496Z,1313.9760
2022-12-28T01:51:15.587Z,1327.0380
2022-12-28T01:51:26.656Z,1324.4050
2022-12-28T01:51:37.701Z,1321.7820
2022-12-28T01:51:48.798Z,1325.7200
2022-12-28T01:51:59.858Z,1315.2710
2022-12-28T01:52:10.945Z,1324.4050
2022-12-28T01:52:22.005Z,1323.0920
2022-12-28T01:52:33.084Z,1319.1700
2022-12-28T01:52:44.161Z,1328.3580
2022-12-28T01:52:55.239Z,1316.5680
2022-12-28T01:53:06.327Z,1315.2710
2022-12-28T01:53:17.447Z,1327.0380
2022-12-28T01:53:28.528Z,1324.4050
2022-12-28T01:53:39.588Z,1333.6660
2022-12-28T01:53:50.656Z,1328.3580
2022-12-28T01:54:01.717Z,1333.6660
2022-12-28T01:54:12.798Z,1327.0380
2022-12-28T01:54:23.860Z,1319.1700
2022-12-28T01:54:34.945Z,1321.7820
2022-12-28T01:54:46.005Z,1335.0000
2022-12-28T01:54:57.086Z,1323.0920
2022-12-28T01:55:08.148Z,1324.4050
2022-12-28T01:55:19.223Z,1327.0380
2022-12-28T01:55:30.318Z,1323.0920
2022-12-28T01:55:41.393Z,1325.7200
2022-12-28T01:55:52.458Z,1333.6660
2022-12-28T01:56:03.551Z,1324.4050
2022-12-28T01:56:14.613Z,1327.0380
2022-12-28T01:56:25.657Z,1327.0380
2022-12-28T01:56:36.723Z,1323.0920
2022-12-28T01:56:47.815Z,1323.0920
2022-12-28T01:56:58.867Z,1337.6750
2022-12-28T01:57:09.919Z,1329.6810
2022-12-28T01:57:21.000Z,1321.7820
2022-12-28T01:57:32.068Z,1332.3350
2022-12-28T01:57:43.128Z,1332.3350
2022-12-28T01:57:54.196Z,1337.6750
2022-12-28T01:58:05.257Z,1336.3361
2022-12-28T01:58:16.335Z,1337.6750
2022-12-28T01:58:27.415Z,1333.6660
2022-12-28T01:58:38.477Z,1335.0000
2022-12-28T01:58:49.546Z,1328.3580
2022-12-28T01:59:00.613Z,1331.0070
2022-12-28T01:59:11.684Z,1328.3580
2022-12-28T01:59:22.761Z,1343.0580
2022-12-28T01:59:33.830Z,1321.7820
2022-12-28T01:59:44.907Z,1332.3350
2022-12-28T01:59:55.988Z,1335.0000
2022-12-28T02:00:07.045Z,1336.3361
2022-12-28T02:00:18.122Z,1335.0000
2022-12-28T02:00:29.203Z,1331.0070
2022-12-28T02:00:40.271Z,1340.3610
2022-12-28T02:00:51.421Z,1337.6750
2022-12-28T02:01:02.569Z,1333.6660
2022-12-28T02:01:13.895Z,1329.6810
2022-12-28T02:01:25.185Z,1340.3610
2022-12-28T02:01:36.460Z,1324.4050
2022-12-28T02:01:47.663Z,1335.0000
2022-12-28T02:01:58.954Z,1331.0070
2022-12-28T02:02:10.361Z,1329.6810
2022-12-28T02:02:21.767Z,1337.6750
2022-12-28T02:02:33.286Z,1339.0170
2022-12-28T02:02:44.658Z,1332.3350
2022-12-28T02:02:55.902Z,1327.0380
2022-12-28T02:03:07.037Z,1347.1240
2022-12-28T02:03:18.102Z,1333.6660
2022-12-28T02:03:29.216Z,1337.6750
2022-12-28T02:03:40.282Z,1328.3580
2022-12-28T02:03:51.346Z,1332.3350
2022-12-28T02:04:02.416Z,1329.6810
2022-12-28T02:04:13.864Z,1331.0070
2022-12-28T02:04:24.936Z,1341.7090
2022-12-28T02:04:36.013Z,1335.0000
2022-12-28T02:04:47.065Z,1348.4850
2022-12-28T02:04:58.132Z,1344.4110
2022-12-28T02:05:09.187Z,1348.4850
2022-12-28T02:05:20.256Z,1340.3610
2022-12-28T02:05:31.326Z,1337.6750
2022-12-28T02:05:42.413Z,1343.0580
2022-12-28T02:05:53.486Z,1332.3350
2022-12-28T02:06:04.555Z,1341.7090
2022-12-28T02:06:18.038Z,1332.3350
2022-12-28T02:06:29.078Z,1341.7090
2022-12-28T02:06:40.174Z,1341.7090
2022-12-28T02:06:51.261Z,1341.7090
2022-12-28T02:07:02.366Z,1344.4110
2022-12-28T02:07:13.403Z,1340.3610
2022-12-28T02:07:24.467Z,1343.0580
2022-12-28T02:07:35.533Z,1337.6750
2022-12-28T02:07:46.612Z,1335.0000